Time;durP1;ratioP1;P1;durP2;ratioP2;P2;SDS_P1;SDS_P2;PMS_P1;PMS_P2;Temp;Humidity;BMP_temperature;BMP_pressure;BME280_temperature;BME280_humidity;BME280_pressure;Samples;Min_cycle;Max_cycle;Signal;HPM_P1;HPM_P2
2021/09/15 00:01:57;;;;;;;14.40;8.53;;;;;;;18.34;68.67;101389.04;1701249;83;25828;-59
2021/09/15 00:04:24;;;;;;;16.25;8.28;;;;;;;18.35;68.40;101396.19;1727453;83;25933;-59
2021/09/15 00:06:51;;;;;;;14.35;8.55;;;;;;;18.36;68.49;101397.89;1686581;82;25821;-60
2021/09/15 00:09:17;;;;;;;18.27;7.92;;;;;;;18.37;68.62;101396.88;1681031;83;25800;-60
2021/09/15 00:11:44;;;;;;;14.28;8.45;;;;;;;18.32;68.43;101400.64;1685913;83;28153;-60
2021/09/15 00:14:11;;;;;;;17.37;7.35;;;;;;;18.27;68.46;101398.44;1688124;83;25879;-59
2021/09/15 00:16:38;;;;;;;12.93;7.70;;;;;;;18.24;68.43;101398.77;1687156;83;26014;-59
2021/09/15 00:19:05;;;;;;;20.77;8.70;;;;;;;18.21;68.59;101395.54;1687263;83;25842;-59
2021/09/15 00:21:33;;;;;;;19.65;8.38;;;;;;;18.16;68.48;101402.86;1689274;83;26279;-59
2021/09/15 00:24:00;;;;;;;21.93;9.38;;;;;;;18.13;68.57;101400.47;1690840;83;27436;-59
2021/09/15 00:26:27;;;;;;;15.00;8.55;;;;;;;18.09;68.41;101401.32;1688082;83;25816;-58
2021/09/15 00:28:54;;;;;;;17.17;8.83;;;;;;;18.04;68.72;101397.41;1683466;83;25752;-59
2021/09/15 00:31:21;;;;;;;18.67;9.03;;;;;;;18.01;68.64;101395.87;1719948;83;25916;-59
2021/09/15 00:33:48;;;;;;;16.57;8.80;;;;;;;18.02;68.62;101396.22;1688370;83;25894;-59
2021/09/15 00:36:15;;;;;;;14.00;8.45;;;;;;;18.05;68.87;101396.39;1705835;83;28140;-58
2021/09/15 00:38:43;;;;;;;20.62;9.28;;;;;;;18.08;68.69;101397.42;1713520;83;25737;-58
2021/09/15 00:41:10;;;;;;;18.55;8.45;;;;;;;18.11;68.51;101394.33;1685822;83;26004;-58
2021/09/15 00:44:02;;;;;;;12.90;8.98;;;;;;;18.13;68.51;101390.44;1697515;83;25840;-59
2021/09/15 00:46:31;;;;;;;16.97;7.37;;;;;;;18.15;68.41;101398.43;1685920;85;25804;-58
2021/09/15 00:48:59;;;;;;;18.35;8.30;;;;;;;18.15;68.17;101395.70;1684103;85;27491;-60
2021/09/15 00:51:27;;;;;;;19.12;8.85;;;;;;;18.15;68.22;101390.27;1683883;85;25822;-58
2021/09/15 00:53:55;;;;;;;27.02;8.25;;;;;;;18.14;68.10;101392.64;1712009;83;25862;-59
2021/09/15 00:56:23;;;;;;;22.40;9.78;;;;;;;18.11;68.01;101397.92;1725886;83;26443;-58
2021/09/15 00:58:51;;;;;;;14.73;8.93;;;;;;;18.10;68.05;101394.02;1728698;83;25454;-58
2021/09/15 01:01:20;;;;;;;17.10;8.55;;;;;;;18.09;68.36;101398.59;1728439;83;27453;-58
2021/09/15 01:03:47;;;;;;;16.42;8.83;;;;;;;18.07;68.09;101398.44;1719346;82;25743;-59
2021/09/15 01:06:15;;;;;;;19.48;9.35;;;;;;;18.07;68.04;101391.10;1709290;83;25795;-59
2021/09/15 01:08:42;;;;;;;21.42;8.75;;;;;;;18.08;68.08;101396.06;1688227;83;25911;-59
2021/09/15 01:11:13;;;;;;;14.47;8.53;;;;;;;18.02;68.09;101394.86;1682245;85;25465;-59
2021/09/15 01:13:42;;;;;;;14.60;8.20;;;;;;;18.02;68.42;101392.14;1688571;83;26910;-60
2021/09/15 01:16:27;;;;;;;11.73;8.43;;;;;;;17.96;68.62;101391.47;1701724;83;25756;-59
2021/09/15 01:18:58;;;;;;;11.88;7.55;;;;;;;17.92;68.70;101391.42;1643957;85;25819;-59
2021/09/15 01:21:36;;;;;;;19.23;8.75;;;;;;;17.93;68.79;101398.57;1623534;88;25837;-59
2021/09/15 01:24:05;;;;;;;17.42;8.83;;;;;;;17.92;68.64;101400.95;1679575;83;25817;-58
2021/09/15 01:26:37;;;;;;;13.58;7.83;;;;;;;17.89;68.73;101393.98;1643316;85;28591;-59
2021/09/15 01:29:29;;;;;;;22.70;8.38;;;;;;;17.84;68.65;101397.20;1711988;83;25513;-59
2021/09/15 01:32:12;;;;;;;15.23;8.75;;;;;;;17.82;68.74;101397.05;1712690;83;25699;-59
2021/09/15 01:34:47;;;;;;;13.65;8.53;;;;;;;17.80;68.66;101394.47;1681699;85;25719;-59
2021/09/15 01:37:17;;;;;;;18.25;8.68;;;;;;;17.79;68.66;101396.01;1723808;83;25746;-58
2021/09/15 01:39:48;;;;;;;14.95;8.58;;;;;;;17.74;68.75;101401.95;1708830;82;27466;-59
2021/09/15 01:42:15;;;;;;;14.33;7.78;;;;;;;17.70;68.95;101395.16;1686977;84;25797;-58
2021/09/15 01:44:45;;;;;;;14.47;8.23;;;;;;;17.68;68.97;101393.11;1660058;84;25499;-58
2021/09/15 01:47:17;;;;;;;18.05;8.45;;;;;;;17.66;69.27;101395.14;1699317;83;26588;-59
2021/09/15 01:49:46;;;;;;;19.30;8.28;;;;;;;17.63;68.88;101396.34;1695491;83;25720;-59
2021/09/15 01:52:15;;;;;;;17.10;8.70;;;;;;;17.62;69.02;101393.77;1679556;84;27409;-59
2021/09/15 01:54:44;;;;;;;15.68;8.70;;;;;;;17.63;69.45;101392.75;1681502;83;25725;-59
2021/09/15 01:57:12;;;;;;;12.20;8.88;;;;;;;17.54;69.52;101385.09;1694760;82;25637;-59
2021/09/15 01:59:44;;;;;;;18.55;8.38;;;;;;;17.53;70.09;101395.11;1670596;83;26912;-59
2021/09/15 02:02:29;;;;;;;17.37;8.80;;;;;;;17.49;70.08;101392.40;1676911;83;25684;-59
2021/09/15 02:04:56;;;;;;;17.42;8.05;;;;;;;17.45;70.43;101386.94;1675108;83;27321;-58
2021/09/15 02:07:25;;;;;;;21.50;8.75;;;;;;;17.46;70.10;101393.24;1685455;82;25806;-59
2021/09/15 02:09:53;;;;;;;19.87;8.63;;;;;;;17.49;70.03;101390.17;1697545;83;25792;-59
2021/09/15 02:12:22;;;;;;;18.10;8.93;;;;;;;17.48;70.03;101386.61;1679751;85;26286;-59
2021/09/15 02:14:49;;;;;;;22.02;8.53;;;;;;;17.50;70.35;101391.39;1683030;83;25487;-59
2021/09/15 02:17:17;;;;;;;13.18;8.80;;;;;;;17.51;70.28;101390.86;1682731;83;27484;-59
2021/09/15 02:19:45;;;;;;;13.72;8.25;;;;;;;17.56;70.51;101393.08;1702466;83;25692;-59
2021/09/15 02:22:18;;;;;;;13.80;8.98;;;;;;;17.62;70.52;101395.99;1675130;83;25796;-59
2021/09/15 02:24:47;;;;;;;12.45;8.25;;;;;;;17.64;70.51;101392.60;1682085;83;25809;-59
2021/09/15 02:27:21;;;;;;;11.90;8.23;;;;;;;17.70;70.38;101399.25;1713438;83;25772;-59
2021/09/15 02:29:48;;;;;;;16.82;8.53;;;;;;;17.74;70.19;101397.04;1706304;82;27460;-59
2021/09/15 02:32:25;;;;;;;16.48;8.75;;;;;;;17.74;70.12;101398.39;1697169;83;25759;-59
2021/09/15 02:34:54;;;;;;;11.38;8.98;;;;;;;17.72;70.11;101401.27;1693747;83;26109;-58
2021/09/15 02:37:23;;;;;;;17.35;8.75;;;;;;;17.71;70.21;101398.72;1706118;82;26972;-58
2021/09/15 02:40:01;;;;;;;17.37;10.25;;;;;;;17.70;70.35;101401.97;1691722;83;25774;-59
2021/09/15 02:42:29;;;;;;;18.45;8.83;;;;;;;17.70;70.48;101401.09;1683487;82;27509;-59
2021/09/15 02:44:58;;;;;;;16.57;9.60;;;;;;;17.69;70.14;101398.90;1712057;83;25756;-58
2021/09/15 02:47:27;;;;;;;23.02;10.45;;;;;;;17.71;70.20;101400.92;1701913;82;25588;-58
2021/09/15 02:50:14;;;;;;;14.23;8.90;;;;;;;17.72;70.22;101409.42;1687285;82;25832;-58
2021/09/15 02:52:55;;;;;;;21.73;9.65;;;;;;;17.73;70.42;101408.41;1683483;83;25849;-58
2021/09/15 02:55:36;;;;;;;19.40;10.45;;;;;;;17.72;70.36;101408.06;1728472;82;27492;-58
2021/09/15 02:58:11;;;;;;;22.02;9.35;;;;;;;17.68;70.61;101407.55;1734572;82;25707;-58
2021/09/15 03:00:40;;;;;;;15.25;9.23;;;;;;;17.65;70.43;101410.63;1716004;82;25914;-58
2021/09/15 03:03:08;;;;;;;19.85;9.53;;;;;;;17.68;70.41;101416.23;1702231;82;25760;-58
2021/09/15 03:05:37;;;;;;;19.25;9.75;;;;;;;17.72;70.44;101416.23;1718733;82;27336;-58
2021/09/15 03:08:06;;;;;;;18.25;9.48;;;;;;;17.77;70.57;101417.09;1721492;83;28408;-59
2021/09/15 03:10:33;;;;;;;14.78;8.73;;;;;;;17.80;70.36;101417.59;1718527;82;25783;-59
2021/09/15 03:13:00;;;;;;;15.55;9.30;;;;;;;17.83;70.48;101425.44;1687347;85;25669;-58
2021/09/15 03:15:27;;;;;;;14.95;9.58;;;;;;;17.86;70.47;101422.05;1686369;82;25780;-58
2021/09/15 03:17:54;;;;;;;13.65;8.43;;;;;;;17.87;70.40;101427.31;1695735;82;25721;-58
2021/09/15 03:20:22;;;;;;;20.85;8.93;;;;;;;17.89;70.43;101427.13;1713234;82;27412;-58
2021/09/15 03:22:49;;;;;;;21.45;8.90;;;;;;;17.90;70.50;101426.98;1692355;82;25789;-58
2021/09/15 03:25:16;;;;;;;22.82;9.40;;;;;;;17.92;70.29;101428.16;1687558;85;25479;-58
2021/09/15 03:27:43;;;;;;;17.60;9.68;;;;;;;17.93;70.39;101429.34;1728290;82;26457;-58
2021/09/15 03:30:11;;;;;;;16.37;8.58;;;;;;;17.96;70.29;101433.14;1698505;82;25577;-59
2021/09/15 03:32:39;;;;;;;29.57;9.40;;;;;;;17.98;70.43;101428.88;1719682;82;27531;-59
2021/09/15 03:35:08;;;;;;;21.17;9.00;;;;;;;17.98;70.40;101426.16;1692532;82;25713;-59
2021/09/15 03:37:36;;;;;;;15.65;9.00;;;;;;;17.99;70.45;101431.45;1687404;83;25789;-59
2021/09/15 03:40:06;;;;;;;22.25;9.13;;;;;;;18.00;70.33;101433.65;1714830;82;25789;-59
2021/09/15 03:42:33;;;;;;;20.50;9.68;;;;;;;18.03;70.61;101429.73;1722445;82;25752;-59
2021/09/15 03:45:00;;;;;;;17.48;8.88;;;;;;;18.04;70.02;101432.30;1683119;83;28242;-59
2021/09/15 03:47:28;;;;;;;15.48;9.50;;;;;;;18.08;69.91;101439.09;1692863;82;25833;-58
2021/09/15 03:49:55;;;;;;;16.23;9.00;;;;;;;18.02;69.69;101439.78;1693798;82;25789;-58
2021/09/15 03:52:22;;;;;;;15.98;8.58;;;;;;;17.95;69.74;101439.56;1700019;82;26554;-58
2021/09/15 03:54:49;;;;;;;16.42;8.85;;;;;;;17.90;69.51;101441.09;1710600;82;25808;-59
2021/09/15 03:57:17;;;;;;;21.37;8.83;;;;;;;17.87;69.52;101442.80;1699351;82;27488;-59
2021/09/15 03:59:44;;;;;;;28.95;9.05;;;;;;;17.81;69.64;101453.32;1733876;81;25739;-59
2021/09/15 04:02:12;;;;;;;22.35;9.30;;;;;;;17.79;70.07;101451.30;1692903;82;25696;-59
2021/09/15 04:04:38;;;;;;;20.72;9.23;;;;;;;17.82;70.21;101454.19;1703835;83;26458;-59
2021/09/15 04:07:07;;;;;;;21.73;9.88;;;;;;;17.88;70.45;101452.67;1722488;83;25758;-58
2021/09/15 04:09:36;;;;;;;21.52;10.53;;;;;;;17.90;70.77;101457.42;1700273;82;27497;-59
2021/09/15 04:12:04;;;;;;;16.82;9.25;;;;;;;17.88;70.56;101452.16;1691997;82;25746;-59
2021/09/15 04:14:33;;;;;;;16.07;8.68;;;;;;;17.90;70.76;101452.84;1702890;83;25884;-59
2021/09/15 04:17:00;;;;;;;15.28;10.13;;;;;;;17.89;70.35;101454.34;1696211;82;25759;-59
2021/09/15 04:19:27;;;;;;;17.95;8.85;;;;;;;17.84;70.37;101458.94;1692676;82;25739;-59
2021/09/15 04:21:54;;;;;;;17.55;8.40;;;;;;;17.81;70.28;101456.56;1688582;82;28620;-59
2021/09/15 04:32:30;;;;;;;27.20;10.48;;;;;;;17.83;70.86;101468.14;1652974;84;25870;-60
2021/09/15 04:34:58;;;;;;;27.48;10.23;;;;;;;17.84;70.49;101465.25;1679627;82;27532;-59
2021/09/15 04:37:25;;;;;;;21.35;9.20;;;;;;;17.83;70.59;101465.42;1691608;82;25808;-59
2021/09/15 04:39:52;;;;;;;22.07;9.83;;;;;;;17.84;70.54;101469.33;1709760;82;25775;-59
2021/09/15 04:42:19;;;;;;;36.60;10.35;;;;;;;17.88;70.54;101468.48;1701213;82;25797;-58
2021/09/15 04:44:47;;;;;;;21.37;10.50;;;;;;;17.91;70.47;101474.09;1733226;82;25720;-59
2021/09/15 04:47:14;;;;;;;22.07;11.00;;;;;;;17.92;70.41;101479.88;1716546;82;27488;-59
2021/09/15 04:49:42;;;;;;;25.08;10.30;;;;;;;17.92;70.40;101485.33;1697013;83;25856;-60
2021/09/15 04:52:09;;;;;;;21.73;9.63;;;;;;;17.96;70.61;101487.58;1680089;83;25756;-59
2021/09/15 04:54:36;;;;;;;29.07;10.18;;;;;;;18.05;70.80;101488.95;1674784;83;25786;-58
2021/09/15 04:57:03;;;;;;;34.50;13.15;;;;;;;18.11;70.73;101484.19;1658076;85;25809;-59
2021/09/15 04:59:31;;;;;;;16.50;10.25;;;;;;;18.13;70.62;101486.23;1648423;85;27479;-59
2021/09/15 05:01:58;;;;;;;24.37;11.08;;;;;;;18.10;70.96;101484.70;1666941;85;25802;-58
2021/09/15 05:04:25;;;;;;;25.90;10.50;;;;;;;18.09;70.52;101487.61;1667172;84;25815;-58
2021/09/15 05:06:55;;;;;;;23.75;10.58;;;;;;;18.11;70.51;101488.27;1689418;83;25964;-58
2021/09/15 05:09:27;;;;;;;27.90;10.90;;;;;;;18.17;70.40;101492.19;1681187;85;25819;-63
2021/09/15 05:11:55;;;;;;;23.22;10.78;;;;;;;18.18;70.15;101490.68;1681008;83;27685;-59
2021/09/15 05:14:22;;;;;;;41.30;11.57;;;;;;;18.18;70.24;101493.41;1708785;83;25815;-60
2021/09/15 05:16:51;;;;;;;26.25;12.00;;;;;;;18.20;70.59;101496.78;1706065;83;25775;-58
2021/09/15 05:19:19;;;;;;;37.23;11.30;;;;;;;18.25;70.41;101499.00;1696949;83;25799;-59
2021/09/15 05:21:47;;;;;;;38.40;18.70;;;;;;;18.29;70.62;101500.38;1690890;83;25860;-59
2021/09/15 05:24:14;;;;;;;27.05;11.63;;;;;;;18.30;70.52;101504.29;1691845;83;28555;-59
2021/09/15 05:26:42;;;;;;;26.85;10.43;;;;;;;18.36;70.48;101500.56;1701743;82;25710;-60
2021/09/15 05:29:09;;;;;;;25.10;9.65;;;;;;;18.37;70.44;101504.47;1699137;83;25759;-60
2021/09/15 05:31:36;;;;;;;23.38;10.10;;;;;;;18.41;70.45;101504.97;1681784;83;26478;-58
2021/09/15 05:34:03;;;;;;;24.37;11.88;;;;;;;18.39;70.19;101510.61;1681329;85;25881;-59
2021/09/15 05:36:31;;;;;;;19.75;10.95;;;;;;;18.35;70.26;101510.59;1681516;83;27572;-59
2021/09/15 05:38:58;;;;;;;20.82;10.80;;;;;;;18.34;71.13;101506.16;1706516;83;25885;-59
2021/09/15 05:41:27;;;;;;;21.68;10.50;;;;;;;18.27;71.80;101506.50;1702612;83;25855;-58
2021/09/15 05:43:55;;;;;;;13.83;9.95;;;;;;;18.23;72.04;101501.06;1678185;83;26470;-59
2021/09/15 05:46:23;;;;;;;16.80;10.15;;;;;;;18.20;71.64;101512.28;1617516;87;25867;-58
2021/09/15 05:48:51;;;;;;;24.12;11.38;;;;;;;18.21;72.25;101508.02;1612622;88;27366;-58
2021/09/15 05:51:19;;;;;;;19.57;11.25;;;;;;;18.21;72.12;101505.83;1615177;88;25761;-58
2021/09/15 05:53:48;;;;;;;23.18;12.30;;;;;;;18.24;72.11;101508.22;1622683;87;25969;-58
2021/09/15 05:56:15;;;;;;;26.45;11.18;;;;;;;18.31;72.14;101511.97;1618072;86;26095;-59
2021/09/15 05:58:42;;;;;;;17.48;11.78;;;;;;;18.39;71.99;101517.91;1614642;88;25769;-60
2021/09/15 06:01:09;;;;;;;18.77;12.03;;;;;;;18.46;71.94;101515.70;1612277;88;28214;-61
2021/09/15 06:03:37;;;;;;;25.77;11.68;;;;;;;18.52;72.16;101513.30;1609433;88;25790;-59
2021/09/15 06:06:06;;;;;;;21.87;12.25;;;;;;;18.54;72.02;101521.67;1589040;88;25859;-58
2021/09/15 06:08:33;;;;;;;20.20;12.93;;;;;;;18.58;71.93;101514.84;1612715;88;25767;-60
2021/09/15 06:11:00;;;;;;;27.00;13.08;;;;;;;18.68;71.76;101518.78;1611799;87;26594;-59
2021/09/15 06:13:27;;;;;;;24.15;12.90;;;;;;;18.84;71.62;101517.05;1653616;86;28042;-59
2021/09/15 06:15:54;;;;;;;28.47;14.20;;;;;;;18.95;71.24;101521.31;1627407;86;25825;-59
2021/09/15 06:18:22;;;;;;;34.70;15.50;;;;;;;19.07;70.78;101519.93;1619509;88;25936;-58
2021/09/15 06:20:51;;;;;;;36.68;15.50;;;;;;;19.19;70.55;101523.13;1595497;88;26521;-59
2021/09/15 06:23:38;;;;;;;39.83;16.25;;;;;;;19.30;69.80;101528.72;1601760;88;25888;-58
2021/09/15 06:26:07;;;;;;;31.23;16.17;;;;;;;19.37;68.97;101525.12;1612795;87;27501;-59
2021/09/15 06:28:34;;;;;;;35.98;15.93;;;;;;;19.44;68.92;101522.55;1614010;87;25853;-59
2021/09/15 06:31:02;;;;;;;40.75;18.52;;;;;;;19.48;68.37;101517.05;1610964;87;26537;-58
2021/09/15 06:33:29;;;;;;;32.55;17.95;;;;;;;19.47;67.83;101524.90;1622414;87;25800;-59
2021/09/15 06:35:56;;;;;;;45.03;17.95;;;;;;;19.44;67.76;101517.09;1614065;87;25947;-60
2021/09/15 06:38:25;;;;;;;38.20;17.52;;;;;;;19.47;67.69;101519.44;1612042;87;27482;-60
2021/09/15 06:40:52;;;;;;;39.75;18.05;;;;;;;19.53;67.63;101521.98;1627401;86;25763;-60
2021/09/15 06:43:19;;;;;;;31.97;19.00;;;;;;;19.58;67.44;101517.36;1668375;84;25839;-60
2021/09/15 06:45:46;;;;;;;31.62;17.42;;;;;;;19.59;67.19;101520.42;1656022;81;26133;-59
2021/09/15 06:48:14;;;;;;;33.75;17.85;;;;;;;19.57;66.76;101523.34;1664769;84;25714;-59
2021/09/15 06:50:41;;;;;;;29.07;17.73;;;;;;;19.57;66.61;101522.47;1665037;86;27404;-59
2021/09/15 06:53:09;;;;;;;31.45;18.32;;;;;;;19.53;66.52;101526.08;1643796;86;25940;-59
2021/09/15 06:55:36;;;;;;;26.90;16.48;;;;;;;19.48;66.98;101524.41;1647447;85;25738;-59
2021/09/15 06:58:04;;;;;;;28.80;17.73;;;;;;;19.51;66.91;101524.90;1647636;85;25769;-60
2021/09/15 07:00:32;;;;;;;27.87;17.32;;;;;;;19.59;66.85;101521.27;1649618;85;25774;-59
2021/09/15 07:02:59;;;;;;;37.00;19.27;;;;;;;19.60;66.71;101522.97;1654483;84;27369;-59
2021/09/15 07:05:26;;;;;;;39.53;17.75;;;;;;;19.62;66.61;101520.92;1662237;85;26366;-60
2021/09/15 07:07:55;;;;;;;33.98;17.20;;;;;;;19.63;66.37;101521.26;1656061;86;26257;-59
2021/09/15 07:10:22;;;;;;;33.58;16.42;;;;;;;19.69;66.43;101521.06;1659898;85;26449;-59
2021/09/15 07:12:49;;;;;;;37.83;17.37;;;;;;;19.88;66.16;101521.15;1664877;84;25824;-59
2021/09/15 07:15:17;;;;;;;26.52;15.50;;;;;;;20.06;65.93;101521.38;1665995;85;27505;-58
2021/09/15 07:17:44;;;;;;;23.95;15.70;;;;;;;20.17;64.73;101523.17;1664635;86;25735;-61
2021/09/15 07:20:14;;;;;;;26.70;16.10;;;;;;;20.24;64.29;101524.67;1653980;84;25730;-58
2021/09/15 07:22:41;;;;;;;27.15;16.23;;;;;;;20.50;64.27;101527.54;1661679;84;26157;-59
2021/09/15 07:25:10;;;;;;;29.23;17.40;;;;;;;20.75;63.83;101524.64;1658561;85;25848;-59
2021/09/15 07:27:37;;;;;;;33.58;16.37;;;;;;;20.91;63.16;101527.21;1635382;86;27448;-60
2021/09/15 07:30:06;;;;;;;32.20;15.35;;;;;;;21.09;62.74;101517.80;1598866;88;25860;-59
2021/09/15 07:32:34;;;;;;;24.00;15.18;;;;;;;21.28;61.93;101525.95;1623856;86;25811;-59
2021/09/15 07:35:01;;;;;;;26.02;15.93;;;;;;;21.42;61.53;101516.90;1667912;84;25781;-60
2021/09/15 07:37:29;;;;;;;33.05;16.00;;;;;;;21.58;61.14;101515.02;1658510;84;26422;-59
2021/09/15 07:39:57;;;;;;;27.80;14.60;;;;;;;21.74;60.80;101523.50;1662045;84;28019;-60
2021/09/15 07:42:25;;;;;;;29.10;15.20;;;;;;;21.88;60.54;101519.03;1657049;85;26582;-60
2021/09/15 07:44:52;;;;;;;26.10;16.55;;;;;;;22.05;59.82;101518.28;1666877;83;25820;-59
2021/09/15 07:47:19;;;;;;;27.90;15.18;;;;;;;22.08;58.83;101511.56;1700266;83;26519;-59
2021/09/15 07:49:49;;;;;;;30.32;15.75;;;;;;;22.17;57.59;101508.52;1698326;82;25781;-59
2021/09/15 07:52:17;;;;;;;27.45;15.60;;;;;;;22.25;58.06;101510.80;1682146;83;28294;-59
2021/09/15 07:54:44;;;;;;;30.50;14.98;;;;;;;22.38;58.20;101510.91;1693218;83;25944;-59
2021/09/15 07:57:11;;;;;;;26.97;15.93;;;;;;;22.53;57.85;101508.66;1691886;83;25908;-60
2021/09/15 07:59:39;;;;;;;24.65;16.37;;;;;;;22.62;57.83;101506.10;1698334;83;25846;-60
2021/09/15 08:02:06;;;;;;;31.45;16.35;;;;;;;22.77;56.67;101506.01;1693836;82;25852;-60
2021/09/15 08:04:33;;;;;;;31.75;16.87;;;;;;;22.79;57.15;101508.00;1699029;83;28125;-60
2021/09/15 08:07:00;;;;;;;27.90;15.75;;;;;;;22.82;56.79;101504.87;1698986;83;25834;-60
2021/09/15 08:09:27;;;;;;;29.45;15.18;;;;;;;22.90;56.59;101498.40;1675501;84;26559;-60
2021/09/15 08:11:54;;;;;;;29.23;16.00;;;;;;;23.00;55.96;101498.86;1677892;85;25798;-59
2021/09/15 08:14:21;;;;;;;27.62;16.02;;;;;;;23.05;56.14;101498.26;1672828;84;25799;-60
2021/09/15 08:16:48;;;;;;;28.15;16.20;;;;;;;23.14;55.53;101496.54;1664436;85;28247;-60
2021/09/15 08:19:15;;;;;;;30.02;15.68;;;;;;;23.24;55.51;101501.68;1665767;85;25822;-60
2021/09/15 08:21:42;;;;;;;25.27;15.45;;;;;;;23.31;54.91;101498.98;1687687;83;25808;-59
2021/09/15 08:24:09;;;;;;;30.12;14.68;;;;;;;23.40;54.74;101501.01;1690665;83;25800;-59
2021/09/15 08:26:36;;;;;;;28.98;14.93;;;;;;;23.44;55.04;101497.66;1688868;83;25650;-59
2021/09/15 08:29:03;;;;;;;24.18;14.30;;;;;;;23.56;55.14;101494.33;1663989;85;27600;-60
2021/09/15 08:31:30;;;;;;;29.37;13.90;;;;;;;23.70;53.87;101491.11;1675672;85;25803;-59
2021/09/15 08:33:58;;;;;;;26.27;14.98;;;;;;;23.78;54.01;101490.91;1690132;82;25711;-59
2021/09/15 08:36:26;;;;;;;24.77;14.87;;;;;;;23.91;52.96;101486.84;1688203;83;26556;-60
2021/09/15 08:38:53;;;;;;;28.57;14.93;;;;;;;24.01;53.58;101488.38;1679028;85;26161;-60
2021/09/15 08:41:20;;;;;;;35.60;14.83;;;;;;;24.17;52.69;101482.98;1654725;85;27494;-60
2021/09/15 08:43:47;;;;;;;30.15;15.15;;;;;;;24.25;53.29;101484.16;1654933;85;25779;-60
2021/09/15 08:46:20;;;;;;;22.82;13.40;;;;;;;24.40;52.65;101492.20;1656794;85;25837;-59
2021/09/15 08:48:48;;;;;;;44.18;13.50;;;;;;;24.52;52.92;101487.78;1642736;86;34815;-60
2021/09/15 08:51:23;;;;;;;30.60;13.70;;;;;;;24.65;52.70;101481.42;1696976;83;25825;-61
2021/09/15 08:53:46;;;;;;;28.32;13.10;;;;;;;24.91;52.34;101487.14;1709460;83;28297;-59
2021/09/15 08:56:14;;;;;;;27.22;12.58;;;;;;;25.16;51.46;101484.52;1704677;83;26291;-59
2021/09/15 08:58:41;;;;;;;28.42;12.33;;;;;;;25.40;51.31;101478.86;1704402;83;25808;-60
2021/09/15 09:01:25;;;;;;;22.62;11.65;;;;;;;25.68;49.73;101481.80;1682770;84;25833;-59
2021/09/15 09:03:56;;;;;;;25.52;11.12;;;;;;;25.90;49.26;101478.72;1641013;85;25769;-61
2021/09/15 09:06:28;;;;;;;21.97;12.20;;;;;;;26.21;48.89;101471.53;1695283;83;28213;-61
2021/09/15 09:09:00;;;;;;;36.17;10.93;;;;;;;26.52;48.00;101465.11;1685078;83;25754;-61
2021/09/15 09:11:27;;;;;;;16.55;10.60;;;;;;;26.87;47.85;101471.48;1680250;83;26549;-61
2021/09/15 09:14:02;;;;;;;14.23;9.13;;;;;;;27.29;46.35;101469.42;1701205;83;25962;-61
2021/09/15 09:16:45;;;;;;;14.50;8.25;;;;;;;27.62;46.03;101469.55;1703149;83;26004;-60
2021/09/15 09:19:18;;;;;;;17.07;8.33;;;;;;;27.62;44.22;101466.78;1694480;83;27542;-60
2021/09/15 09:21:51;;;;;;;20.12;8.95;;;;;;;27.48;44.27;101463.91;1712357;83;25775;-61
2021/09/15 09:24:22;;;;;;;14.87;9.35;;;;;;;27.26;44.33;101467.11;1713273;83;25772;-60
2021/09/15 09:26:59;;;;;;;12.60;8.53;;;;;;;27.11;44.56;101463.91;1710971;83;26479;-60
2021/09/15 09:29:35;;;;;;;19.42;9.10;;;;;;;27.02;44.65;101457.86;1687699;83;25885;-61
2021/09/15 09:32:13;;;;;;;15.48;8.05;;;;;;;26.92;44.46;101454.79;1689438;83;28138;-61
2021/09/15 09:34:46;;;;;;;15.50;7.97;;;;;;;26.77;43.69;101453.22;1675581;83;25742;-61
2021/09/15 09:37:21;;;;;;;14.40;8.88;;;;;;;26.62;44.09;101449.44;1700978;83;25830;-61
2021/09/15 09:39:55;;;;;;;14.18;7.67;;;;;;;26.72;44.55;101444.77;1682856;83;26459;-61
2021/09/15 09:42:30;;;;;;;14.15;7.90;;;;;;;26.98;43.87;101446.96;1707560;83;25823;-60
2021/09/15 09:45:10;;;;;;;18.57;7.45;;;;;;;26.86;43.31;101442.19;1712896;83;28032;-61
2021/09/15 09:47:38;;;;;;;14.87;6.85;;;;;;;26.76;43.56;101441.84;1688361;83;25977;-60
2021/09/15 09:50:19;;;;;;;14.87;6.92;;;;;;;26.74;42.69;101444.01;1676967;83;25780;-61
2021/09/15 09:53:03;;;;;;;13.40;7.58;;;;;;;26.67;42.14;101437.72;1682645;82;25891;-60
2021/09/15 09:55:34;;;;;;;;;;;;;;;26.61;42.26;101433.95;1691587;83;25741;-60
2021/09/15 09:58:03;;;;;;;14.13;6.65;;;;;;;26.57;43.20;101436.84;1695216;83;28290;-61
2021/09/15 10:00:31;;;;;;;13.75;6.85;;;;;;;27.37;42.46;101432.89;1681667;83;26472;-61
2021/09/15 10:03:04;;;;;;;11.15;6.75;;;;;;;28.67;41.60;101435.98;1685367;85;25760;-60
2021/09/15 10:05:31;;;;;;;13.78;6.17;;;;;;;29.58;40.05;101431.84;1686763;83;26440;-60
2021/09/15 10:08:00;;;;;;;13.88;6.53;;;;;;;29.41;39.14;101422.64;1698082;82;25841;-61
2021/09/15 10:10:27;;;;;;;9.10;6.80;;;;;;;29.13;38.62;101422.35;1690004;83;27443;-60
2021/09/15 10:12:55;;;;;;;10.05;5.87;;;;;;;29.20;38.10;101418.03;1681784;83;25754;-61
2021/09/15 10:15:23;;;;;;;11.20;6.65;;;;;;;28.89;38.49;101420.17;1698667;83;26396;-61
2021/09/15 10:17:53;;;;;;;12.28;6.45;;;;;;;28.77;38.45;101417.95;1698841;84;25739;-60
2021/09/15 10:20:27;;;;;;;12.75;5.83;;;;;;;29.63;37.52;101412.52;1698539;84;25795;-61
2021/09/15 10:22:54;;;;;;;12.78;5.90;;;;;;;30.81;36.66;101408.61;1698347;84;28419;-60
2021/09/15 10:25:39;;;;;;;10.60;4.85;;;;;;;32.00;34.49;101398.83;1700659;83;25760;-60
2021/09/15 10:28:09;;;;;;;15.20;4.30;;;;;;;33.03;32.67;101400.05;1706122;83;25833;-60
2021/09/15 10:30:56;;;;;;;12.50;3.98;;;;;;;33.95;31.14;101399.42;1703195;82;26228;-61
2021/09/15 10:33:45;;;;;;;8.65;4.37;;;;;;;34.72;29.29;101390.09;1696531;82;25867;-61
2021/09/15 10:36:20;;;;;;;14.85;4.65;;;;;;;35.41;27.53;101383.94;1676131;84;27536;-61
2021/09/15 10:39:02;;;;;;;10.00;3.35;;;;;;;36.07;25.83;101385.11;1699012;83;26445;-61
2021/09/15 10:41:37;;;;;;;11.83;4.03;;;;;;;36.52;26.21;101380.77;1712972;83;26401;-61
2021/09/15 10:44:13;;;;;;;9.70;3.42;;;;;;;37.04;25.60;101381.81;1713052;82;26057;-61
2021/09/15 10:46:44;;;;;;;9.98;4.30;;;;;;;37.79;24.40;101377.88;1712595;83;25733;-62
2021/09/15 10:49:28;;;;;;;14.90;5.20;;;;;;;38.45;23.74;101378.42;1680392;83;27436;-63
2021/09/15 10:52:13;;;;;;;7.03;4.60;;;;;;;38.96;24.33;101377.36;1689461;83;25820;-63
2021/09/15 10:54:54;;;;;;;8.30;5.42;;;;;;;39.47;22.29;101374.55;1688538;83;26506;-62
2021/09/15 10:57:31;;;;;;;7.15;4.37;;;;;;;39.66;20.68;101374.34;1699203;83;25772;-62
2021/09/15 11:00:10;;;;;;;6.45;4.90;;;;;;;39.12;21.86;101364.38;1680503;85;26515;-63
2021/09/15 11:02:43;;;;;;;8.98;4.20;;;;;;;39.38;21.82;101367.43;1687943;83;27551;-62
2021/09/15 11:05:37;;;;;;;6.03;4.53;;;;;;;39.60;20.98;101362.97;1682856;83;25951;-63
2021/09/15 11:08:04;;;;;;;8.93;3.83;;;;;;;39.20;20.08;101361.37;1644906;86;26494;-63
2021/09/15 11:10:37;;;;;;;6.90;4.35;;;;;;;38.86;20.82;101358.48;1621617;88;25821;-62
2021/09/15 11:13:14;;;;;;;7.53;4.25;;;;;;;38.85;21.07;101359.63;1675929;83;25965;-63
2021/09/15 11:15:48;;;;;;;6.55;3.58;;;;;;;39.02;20.31;101354.17;1682770;83;28802;-63
2021/09/15 11:18:22;;;;;;;11.60;4.28;;;;;;;38.70;21.05;101351.77;1689320;83;25826;-63
2021/09/15 11:21:05;;;;;;;10.63;3.98;;;;;;;37.90;21.37;101351.89;1703358;82;25803;-61
2021/09/15 11:23:32;;;;;;;10.70;4.60;;;;;;;36.74;22.69;101350.80;1688114;83;26053;-62
2021/09/15 11:26:01;;;;;;;7.53;4.67;;;;;;;36.31;22.80;101348.74;1680607;85;26484;-62
2021/09/15 11:28:29;;;;;;;9.65;4.00;;;;;;;36.01;23.72;101343.73;1686798;83;27480;-62
2021/09/15 11:31:03;;;;;;;12.85;4.58;;;;;;;35.66;24.23;101340.10;1686766;83;25733;-62
2021/09/15 11:33:41;;;;;;;8.23;4.25;;;;;;;35.17;24.78;101337.09;1694900;83;25782;-61
2021/09/15 11:36:11;;;;;;;12.85;5.00;;;;;;;34.55;25.80;101333.73;1717543;83;25733;-62